sensor_id;sensor_type;location;lat;lon;timestamp;pressure;altitude;pressure_sealevel;temperature;humidity
48606;BME280;8482;54.396;18.590;2024-02-23T20:47:10;100157.88;;;6.24;78.48
48606;BME280;8482;54.396;18.590;2024-02-23T20:49:36;100158.72;;;6.25;79.63
48606;BME280;8482;54.396;18.590;2024-02-23T20:52:01;100158.72;;;6.25;80.67
48606;BME280;8482;54.396;18.590;2024-02-23T20:54:27;100158.59;;;6.26;80.29
48606;BME280;8482;54.396;18.590;2024-02-23T20:56:54;100161.84;;;6.30;80.67
48606;BME280;8482;54.396;18.590;2024-02-23T20:59:20;100159.13;;;6.32;80.07
48606;BME280;8482;54.396;18.590;2024-02-23T21:01:45;100162.81;;;6.29;80.31
48606;BME280;8482;54.396;18.590;2024-02-23T21:04:11;100166.91;;;6.33;80.25
48606;BME280;8482;54.396;18.590;2024-02-23T21:06:37;100173.75;;;6.36;80.41
48606;BME280;8482;54.396;18.590;2024-02-23T21:09:03;100171.84;;;6.38;80.41
48606;BME280;8482;54.396;18.590;2024-02-23T21:11:29;100168.41;;;6.37;80.48
48606;BME280;8482;54.396;18.590;2024-02-23T21:13:55;100161.31;;;6.38;80.27
48606;BME280;8482;54.396;18.590;2024-02-23T21:16:21;100165.63;;;6.39;80.24
48606;BME280;8482;54.396;18.590;2024-02-23T21:18:47;100167.31;;;6.40;79.87
48606;BME280;8482;54.396;18.590;2024-02-23T21:21:13;100168.19;;;6.40;80.03
48606;BME280;8482;54.396;18.590;2024-02-23T21:23:46;100172.50;;;6.41;79.98
48606;BME280;8482;54.396;18.590;2024-02-23T21:26:12;100171.53;;;6.42;79.67
48606;BME280;8482;54.396;18.590;2024-02-23T21:28:38;100164.38;;;6.44;79.74
48606;BME280;8482;54.396;18.590;2024-02-23T21:31:04;100173.13;;;6.45;79.81
48606;BME280;8482;54.396;18.590;2024-02-23T21:33:30;100181.84;;;6.46;80.65
48606;BME280;8482;54.396;18.590;2024-02-23T21:35:57;100180.16;;;6.44;80.22
48606;BME280;8482;54.396;18.590;2024-02-23T21:38:23;100177.88;;;6.40;80.43
48606;BME280;8482;54.396;18.590;2024-02-23T21:40:49;100182.06;;;6.42;80.56
48606;BME280;8482;54.396;18.590;2024-02-23T21:43:15;100172.50;;;6.41;80.21
48606;BME280;8482;54.396;18.590;2024-02-23T21:45:41;100180.16;;;6.44;80.01
48606;BME280;8482;54.396;18.590;2024-02-23T21:48:07;100181.84;;;6.46;80.39
48606;BME280;8482;54.396;18.590;2024-02-23T21:50:33;100175.63;;;6.47;79.95
48606;BME280;8482;54.396;18.590;2024-02-23T21:52:59;100179.97;;;6.48;80.36
48606;BME280;8482;54.396;18.590;2024-02-23T21:55:25;100182.59;;;6.48;80.26
48606;BME280;8482;54.396;18.590;2024-02-23T21:57:52;100180.09;;;6.46;79.56
48606;BME280;8482;54.396;18.590;2024-02-23T22:00:19;100188.59;;;6.50;79.32
48606;BME280;8482;54.396;18.590;2024-02-23T22:02:45;100187.97;;;6.46;79.34
48606;BME280;8482;54.396;18.590;2024-02-23T22:05:11;100189.75;;;6.46;79.56
48606;BME280;8482;54.396;18.590;2024-02-23T22:07:37;100194.41;;;6.42;79.82
48606;BME280;8482;54.396;18.590;2024-02-23T22:10:03;100188.81;;;6.47;79.58
48606;BME280;8482;54.396;18.590;2024-02-23T22:12:30;100185.97;;;6.50;79.92
48606;BME280;8482;54.396;18.590;2024-02-23T22:14:56;100183.13;;;6.53;79.77
48606;BME280;8482;54.396;18.590;2024-02-23T22:17:28;100198.69;;;6.56;79.84
48606;BME280;8482;54.396;18.590;2024-02-23T22:19:55;100187.94;;;6.59;79.94
48606;BME280;8482;54.396;18.590;2024-02-23T22:22:24;100180.97;;;6.58;79.49
48606;BME280;8482;54.396;18.590;2024-02-23T22:24:49;100185.81;;;6.64;79.55
48606;BME280;8482;54.396;18.590;2024-02-23T22:27:15;100183.19;;;6.64;79.67
48606;BME280;8482;54.396;18.590;2024-02-23T22:29:41;100186.31;;;6.69;79.39
48606;BME280;8482;54.396;18.590;2024-02-23T22:32:07;100192.25;;;6.73;79.08
48606;BME280;8482;54.396;18.590;2024-02-23T22:34:33;100189.28;;;6.78;79.10
48606;BME280;8482;54.396;18.590;2024-02-23T22:36:59;100190.72;;;6.82;79.03
48606;BME280;8482;54.396;18.590;2024-02-23T22:39:24;100188.72;;;6.85;78.43
48606;BME280;8482;54.396;18.590;2024-02-23T22:41:50;100183.94;;;6.90;77.60
48606;BME280;8482;54.396;18.590;2024-02-23T22:44:16;100179.41;;;6.93;77.77
48606;BME280;8482;54.396;18.590;2024-02-23T22:46:42;100178.09;;;6.98;77.79
48606;BME280;8482;54.396;18.590;2024-02-23T22:49:08;100172.59;;;7.01;77.24
48606;BME280;8482;54.396;18.590;2024-02-23T22:51:34;100184.63;;;7.05;76.59
48606;BME280;8482;54.396;18.590;2024-02-23T22:54:00;100163.53;;;7.05;76.29
48606;BME280;8482;54.396;18.590;2024-02-23T22:56:26;100175.75;;;7.07;76.29
48606;BME280;8482;54.396;18.590;2024-02-23T22:58:52;100177.44;;;7.08;75.67
48606;BME280;8482;54.396;18.590;2024-02-23T23:01:18;100173.94;;;7.07;75.99
48606;BME280;8482;54.396;18.590;2024-02-23T23:03:44;100167.84;;;7.07;76.01
48606;BME280;8482;54.396;18.590;2024-02-23T23:06:09;100171.94;;;7.11;75.94
48606;BME280;8482;54.396;18.590;2024-02-23T23:08:35;100164.97;;;7.10;76.20
48606;BME280;8482;54.396;18.590;2024-02-23T23:11:01;100176.25;;;7.12;75.48
48606;BME280;8482;54.396;18.590;2024-02-23T23:13:27;100175.41;;;7.11;75.15
48606;BME280;8482;54.396;18.590;2024-02-23T23:15:53;100184.78;;;7.15;75.22
48606;BME280;8482;54.396;18.590;2024-02-23T23:18:19;100183.00;;;7.16;74.97
48606;BME280;8482;54.396;18.590;2024-02-23T23:20:44;100183.72;;;7.18;75.01
48606;BME280;8482;54.396;18.590;2024-02-23T23:23:10;100180.13;;;7.19;74.89
48606;BME280;8482;54.396;18.590;2024-02-23T23:25:36;100181.91;;;7.18;74.66
